KCRS/CRS METAR and TAF weather

Enter ICAO airport designator
Station Type Date Time Source
KCRS METAR 2020/09/20 12:53 UTC NOAA

KCRS 201253Z AUTO 01006KT 9SM CLR 15/13 A3014 RMK AO2 SLP204 T01500128


Station Type Date Time Source
KCRS Decoded METAR 2020/09/20 12:53 UTC NOAA

CORSICANA AIRFIELD, TX, United States (KCRS) 32-01N 96-23W 133M
Sep 20, 2020 - 08:53 AM EDT / 2020.09.20 1253 UTC
Wind: from the N (010 degrees) at 7 MPH (6 KT):0
Visibility: 9 mile(s):0
Sky conditions: clear
Temperature: 59.0 F (15.0 C)
Dew Point: 55.0 F (12.8 C)
Relative Humidity: 86%
Pressure (altimeter): 30.14 in. Hg (1020 hPa)
ob: KCRS 201253Z AUTO 01006KT 9SM CLR 15/13 A3014 RMK AO2 SLP204 T01500128
cycle: 13

Station Type Date Time Source
KCRS TAF UTC NOAA

Error!

Example: see airport list